sensor_id;sensor_type;location;lat;lon;timestamp;temperature;humidity
11446;DHT22;5779;64.178;15.432;2022-11-20T00:00:53;-7.70;99.90
11446;DHT22;5779;64.178;15.432;2022-11-20T00:03:41;-7.60;99.90
11446;DHT22;5779;64.178;15.432;2022-11-20T00:06:28;-7.60;99.90
11446;DHT22;5779;64.178;15.432;2022-11-20T00:09:14;-7.60;99.90
11446;DHT22;5779;64.178;15.432;2022-11-20T00:12:03;-7.70;99.90
11446;DHT22;5779;64.178;15.432;2022-11-20T00:14:50;-7.70;99.90
11446;DHT22;5779;64.178;15.432;2022-11-20T00:17:37;-7.70;99.90
11446;DHT22;5779;64.178;15.432;2022-11-20T00:20:24;-7.90;99.90
11446;DHT22;5779;64.178;15.432;2022-11-20T00:23:11;-8.20;99.90
11446;DHT22;5779;64.178;15.432;2022-11-20T00:26:02;-8.30;99.90
11446;DHT22;5779;64.178;15.432;2022-11-20T00:28:52;-8.20;99.90
11446;DHT22;5779;64.178;15.432;2022-11-20T00:31:39;-8.40;99.90
11446;DHT22;5779;64.178;15.432;2022-11-20T00:34:26;-8.40;99.90
11446;DHT22;5779;64.178;15.432;2022-11-20T00:37:13;-8.40;99.90
11446;DHT22;5779;64.178;15.432;2022-11-20T00:39:59;-8.40;99.90
11446;DHT22;5779;64.178;15.432;2022-11-20T00:42:46;-8.10;99.90
11446;DHT22;5779;64.178;15.432;2022-11-20T00:45:35;-8.00;99.90
11446;DHT22;5779;64.178;15.432;2022-11-20T00:48:22;-8.00;99.90
11446;DHT22;5779;64.178;15.432;2022-11-20T00:51:08;-8.00;99.90
11446;DHT22;5779;64.178;15.432;2022-11-20T00:53:57;-7.80;99.90
11446;DHT22;5779;64.178;15.432;2022-11-20T00:56:45;-8.00;99.90
11446;DHT22;5779;64.178;15.432;2022-11-20T00:59:31;-8.00;99.90
11446;DHT22;5779;64.178;15.432;2022-11-20T01:02:20;-8.40;99.90
11446;DHT22;5779;64.178;15.432;2022-11-20T01:05:07;-8.30;99.90
11446;DHT22;5779;64.178;15.432;2022-11-20T01:07:54;-8.30;99.90
11446;DHT22;5779;64.178;15.432;2022-11-20T01:10:41;-8.20;99.90
11446;DHT22;5779;64.178;15.432;2022-11-20T01:13:28;-8.00;99.90
11446;DHT22;5779;64.178;15.432;2022-11-20T01:16:26;-7.90;99.90
11446;DHT22;5779;64.178;15.432;2022-11-20T01:19:17;-8.10;99.90
11446;DHT22;5779;64.178;15.432;2022-11-20T01:22:04;-8.20;99.90
11446;DHT22;5779;64.178;15.432;2022-11-20T01:24:51;-8.10;99.90
11446;DHT22;5779;64.178;15.432;2022-11-20T01:27:38;-8.10;99.90
11446;DHT22;5779;64.178;15.432;2022-11-20T01:30:25;-8.00;99.90
11446;DHT22;5779;64.178;15.432;2022-11-20T01:33:12;-7.80;99.90
11446;DHT22;5779;64.178;15.432;2022-11-20T01:36:06;-7.80;99.90
11446;DHT22;5779;64.178;15.432;2022-11-20T01:38:53;-7.80;99.90
11446;DHT22;5779;64.178;15.432;2022-11-20T01:41:41;-7.70;99.90
11446;DHT22;5779;64.178;15.432;2022-11-20T01:44:54;-7.80;99.90
11446;DHT22;5779;64.178;15.432;2022-11-20T01:47:43;-7.80;99.90
11446;DHT22;5779;64.178;15.432;2022-11-20T01:50:31;-7.80;99.90
11446;DHT22;5779;64.178;15.432;2022-11-20T01:53:23;-7.80;99.90
11446;DHT22;5779;64.178;15.432;2022-11-20T01:56:12;-7.70;99.90
11446;DHT22;5779;64.178;15.432;2022-11-20T01:59:02;-7.70;99.90
11446;DHT22;5779;64.178;15.432;2022-11-20T02:01:50;-7.80;99.90
11446;DHT22;5779;64.178;15.432;2022-11-20T02:04:37;-7.90;99.90
11446;DHT22;5779;64.178;15.432;2022-11-20T02:07:24;-8.10;99.90
11446;DHT22;5779;64.178;15.432;2022-11-20T02:10:12;-8.30;99.90
11446;DHT22;5779;64.178;15.432;2022-11-20T02:12:59;-8.20;99.90
11446;DHT22;5779;64.178;15.432;2022-11-20T02:16:10;-8.20;99.90
11446;DHT22;5779;64.178;15.432;2022-11-20T02:19:00;-8.20;99.90
11446;DHT22;5779;64.178;15.432;2022-11-20T02:21:51;-8.40;99.90
11446;DHT22;5779;64.178;15.432;2022-11-20T02:24:42;-8.40;99.90
11446;DHT22;5779;64.178;15.432;2022-11-20T02:27:30;-8.30;99.90
11446;DHT22;5779;64.178;15.432;2022-11-20T02:30:18;-8.10;99.90
11446;DHT22;5779;64.178;15.432;2022-11-20T02:33:04;-8.00;99.90
11446;DHT22;5779;64.178;15.432;2022-11-20T02:35:51;-7.90;99.90
11446;DHT22;5779;64.178;15.432;2022-11-20T02:38:38;-8.00;99.90
11446;DHT22;5779;64.178;15.432;2022-11-20T02:41:33;-8.30;99.90
11446;DHT22;5779;64.178;15.432;2022-11-20T02:44:20;-8.30;99.90
11446;DHT22;5779;64.178;15.432;2022-11-20T02:47:07;-8.30;99.90
11446;DHT22;5779;64.178;15.432;2022-11-20T02:49:54;-8.30;99.90
11446;DHT22;5779;64.178;15.432;2022-11-20T02:52:42;-8.30;99.90
11446;DHT22;5779;64.178;15.432;2022-11-20T02:55:29;-8.40;99.90
11446;DHT22;5779;64.178;15.432;2022-11-20T02:58:17;-8.30;99.90
11446;DHT22;5779;64.178;15.432;2022-11-20T03:01:04;-8.40;99.90
11446;DHT22;5779;64.178;15.432;2022-11-20T03:03:50;-8.40;99.90
11446;DHT22;5779;64.178;15.432;2022-11-20T03:06:39;-9.00;99.90
11446;DHT22;5779;64.178;15.432;2022-11-20T03:09:26;-9.00;99.90
11446;DHT22;5779;64.178;15.432;2022-11-20T03:12:13;-9.20;99.90
11446;DHT22;5779;64.178;15.432;2022-11-20T03:15:02;-9.50;99.90
11446;DHT22;5779;64.178;15.432;2022-11-20T03:17:48;-9.50;99.90
11446;DHT22;5779;64.178;15.432;2022-11-20T03:20:35;-9.40;99.90
11446;DHT22;5779;64.178;15.432;2022-11-20T03:23:22;-9.30;99.90
11446;DHT22;5779;64.178;15.432;2022-11-20T03:26:14;-9.20;99.90
11446;DHT22;5779;64.178;15.432;2022-11-20T03:29:02;-9.10;99.90
11446;DHT22;5779;64.178;15.432;2022-11-20T03:31:51;-9.10;99.90
11446;DHT22;5779;64.178;15.432;2022-11-20T03:34:37;-9.10;99.90
11446;DHT22;5779;64.178;15.432;2022-11-20T03:37:24;-9.00;99.90
11446;DHT22;5779;64.178;15.432;2022-11-20T03:40:12;-9.00;99.90
11446;DHT22;5779;64.178;15.432;2022-11-20T03:42:58;-8.90;99.90
11446;DHT22;5779;64.178;15.432;2022-11-20T03:45:46;-8.90;99.90
11446;DHT22;5779;64.178;15.432;2022-11-20T03:48:34;-8.70;99.90
11446;DHT22;5779;64.178;15.432;2022-11-20T03:51:22;-8.70;99.90
11446;DHT22;5779;64.178;15.432;2022-11-20T03:54:09;-8.70;99.90
11446;DHT22;5779;64.178;15.432;2022-11-20T03:56:56;-8.60;99.90
11446;DHT22;5779;64.178;15.432;2022-11-20T03:59:43;-8.50;99.90
11446;DHT22;5779;64.178;15.432;2022-11-20T04:02:30;-8.40;99.90
11446;DHT22;5779;64.178;15.432;2022-11-20T04:05:18;-8.60;99.90
11446;DHT22;5779;64.178;15.432;2022-11-20T04:08:05;-8.90;99.90
11446;DHT22;5779;64.178;15.432;2022-11-20T04:10:52;-9.00;99.90
11446;DHT22;5779;64.178;15.432;2022-11-20T04:13:39;-9.00;99.90
11446;DHT22;5779;64.178;15.432;2022-11-20T04:16:29;-8.90;99.90
11446;DHT22;5779;64.178;15.432;2022-11-20T04:19:16;-8.90;99.90
11446;DHT22;5779;64.178;15.432;2022-11-20T04:22:05;-9.00;99.90
11446;DHT22;5779;64.178;15.432;2022-11-20T04:24:52;-9.00;99.90
11446;DHT22;5779;64.178;15.432;2022-11-20T04:27:38;-8.90;99.90
11446;DHT22;5779;64.178;15.432;2022-11-20T04:30:25;-8.90;99.90
11446;DHT22;5779;64.178;15.432;2022-11-20T04:33:12;-8.90;99.90
11446;DHT22;5779;64.178;15.432;2022-11-20T04:36:03;-8.80;99.90
11446;DHT22;5779;64.178;15.432;2022-11-20T04:38:52;-8.70;99.90
11446;DHT22;5779;64.178;15.432;2022-11-20T04:41:40;-8.60;99.90
11446;DHT22;5779;64.178;15.432;2022-11-20T04:44:26;-8.90;99.90
11446;DHT22;5779;64.178;15.432;2022-11-20T04:47:13;-8.90;99.90
11446;DHT22;5779;64.178;15.432;2022-11-20T04:50:00;-9.10;99.90
11446;DHT22;5779;64.178;15.432;2022-11-20T04:52:47;-9.20;99.90
11446;DHT22;5779;64.178;15.432;2022-11-20T04:55:35;-9.50;99.90
11446;DHT22;5779;64.178;15.432;2022-11-20T04:58:22;-9.50;99.90
11446;DHT22;5779;64.178;15.432;2022-11-20T05:01:11;-9.50;99.90
11446;DHT22;5779;64.178;15.432;2022-11-20T05:03:58;-9.50;99.90
11446;DHT22;5779;64.178;15.432;2022-11-20T05:06:45;-9.30;99.90
11446;DHT22;5779;64.178;15.432;2022-11-20T05:09:33;-9.10;99.90
11446;DHT22;5779;64.178;15.432;2022-11-20T05:12:21;-8.90;99.90
11446;DHT22;5779;64.178;15.432;2022-11-20T05:15:08;-8.80;99.90
11446;DHT22;5779;64.178;15.432;2022-11-20T05:17:55;-8.70;99.90
11446;DHT22;5779;64.178;15.432;2022-11-20T05:20:42;-8.70;99.90
11446;DHT22;5779;64.178;15.432;2022-11-20T05:23:30;-8.60;99.90
11446;DHT22;5779;64.178;15.432;2022-11-20T05:26:18;-8.60;99.90
11446;DHT22;5779;64.178;15.432;2022-11-20T05:29:10;-8.60;99.90
11446;DHT22;5779;64.178;15.432;2022-11-20T05:31:56;-8.50;99.90
11446;DHT22;5779;64.178;15.432;2022-11-20T05:34:43;-8.40;99.90
11446;DHT22;5779;64.178;15.432;2022-11-20T05:37:30;-8.40;99.90
11446;DHT22;5779;64.178;15.432;2022-11-20T05:40:17;-8.30;99.90
11446;DHT22;5779;64.178;15.432;2022-11-20T05:43:04;-8.40;99.90
11446;DHT22;5779;64.178;15.432;2022-11-20T05:45:55;-8.40;99.90
11446;DHT22;5779;64.178;15.432;2022-11-20T05:48:43;-8.50;99.90
11446;DHT22;5779;64.178;15.432;2022-11-20T05:51:29;-8.50;99.90
11446;DHT22;5779;64.178;15.432;2022-11-20T05:54:16;-8.50;99.90
11446;DHT22;5779;64.178;15.432;2022-11-20T05:57:03;-8.50;99.90
11446;DHT22;5779;64.178;15.432;2022-11-20T05:59:50;-8.40;99.90
11446;DHT22;5779;64.178;15.432;2022-11-20T06:02:38;-8.60;99.90
11446;DHT22;5779;64.178;15.432;2022-11-20T06:05:25;-8.80;99.90
11446;DHT22;5779;64.178;15.432;2022-11-20T06:08:12;-8.90;99.90
11446;DHT22;5779;64.178;15.432;2022-11-20T06:11:02;-8.90;99.90
11446;DHT22;5779;64.178;15.432;2022-11-20T06:13:49;-8.80;99.90
11446;DHT22;5779;64.178;15.432;2022-11-20T06:16:36;-8.70;99.90
11446;DHT22;5779;64.178;15.432;2022-11-20T06:19:24;-8.80;99.90
11446;DHT22;5779;64.178;15.432;2022-11-20T06:22:11;-8.90;99.90
11446;DHT22;5779;64.178;15.432;2022-11-20T06:24:58;-9.10;99.90
11446;DHT22;5779;64.178;15.432;2022-11-20T06:27:45;-9.30;99.90
11446;DHT22;5779;64.178;15.432;2022-11-20T06:30:31;-9.20;99.90
11446;DHT22;5779;64.178;15.432;2022-11-20T06:33:18;-9.40;99.90
11446;DHT22;5779;64.178;15.432;2022-11-20T06:36:07;-9.30;99.90
11446;DHT22;5779;64.178;15.432;2022-11-20T06:38:54;-9.20;99.90
11446;DHT22;5779;64.178;15.432;2022-11-20T06:41:41;-9.00;99.90
11446;DHT22;5779;64.178;15.432;2022-11-20T06:44:27;-9.20;99.90
11446;DHT22;5779;64.178;15.432;2022-11-20T06:47:14;-9.40;99.90
11446;DHT22;5779;64.178;15.432;2022-11-20T06:50:01;-9.30;99.90
11446;DHT22;5779;64.178;15.432;2022-11-20T06:52:49;-9.00;99.90
11446;DHT22;5779;64.178;15.432;2022-11-20T06:55:36;-9.30;99.90
11446;DHT22;5779;64.178;15.432;2022-11-20T06:58:25;-9.30;99.90
11446;DHT22;5779;64.178;15.432;2022-11-20T07:01:13;-9.30;99.90
11446;DHT22;5779;64.178;15.432;2022-11-20T07:04:01;-9.30;99.90
11446;DHT22;5779;64.178;15.432;2022-11-20T07:06:48;-9.20;99.90
11446;DHT22;5779;64.178;15.432;2022-11-20T07:09:36;-9.20;99.90
11446;DHT22;5779;64.178;15.432;2022-11-20T07:12:23;-9.40;99.90
11446;DHT22;5779;64.178;15.432;2022-11-20T07:15:10;-9.30;99.90
11446;DHT22;5779;64.178;15.432;2022-11-20T07:17:59;-9.10;99.90
11446;DHT22;5779;64.178;15.432;2022-11-20T07:20:45;-8.90;99.90
11446;DHT22;5779;64.178;15.432;2022-11-20T07:23:32;-8.80;99.90
11446;DHT22;5779;64.178;15.432;2022-11-20T07:26:21;-8.80;99.90
11446;DHT22;5779;64.178;15.432;2022-11-20T07:29:07;-8.80;99.90
11446;DHT22;5779;64.178;15.432;2022-11-20T07:31:54;-8.80;99.90
11446;DHT22;5779;64.178;15.432;2022-11-20T07:34:41;-8.80;99.90
11446;DHT22;5779;64.178;15.432;2022-11-20T07:37:28;-8.80;99.90
11446;DHT22;5779;64.178;15.432;2022-11-20T07:40:15;-8.80;99.90
11446;DHT22;5779;64.178;15.432;2022-11-20T07:43:04;-8.70;99.90
11446;DHT22;5779;64.178;15.432;2022-11-20T07:45:51;-8.70;99.90
11446;DHT22;5779;64.178;15.432;2022-11-20T07:48:38;-8.60;99.90
11446;DHT22;5779;64.178;15.432;2022-11-20T07:51:25;-8.40;99.90
11446;DHT22;5779;64.178;15.432;2022-11-20T07:54:12;-8.40;99.90
11446;DHT22;5779;64.178;15.432;2022-11-20T07:56:59;-8.40;99.90
11446;DHT22;5779;64.178;15.432;2022-11-20T07:59:48;-8.50;99.90
11446;DHT22;5779;64.178;15.432;2022-11-20T08:02:37;-8.40;99.90
11446;DHT22;5779;64.178;15.432;2022-11-20T08:05:24;-8.30;99.90
11446;DHT22;5779;64.178;15.432;2022-11-20T08:08:10;-8.20;99.90
11446;DHT22;5779;64.178;15.432;2022-11-20T08:10:57;-8.30;99.90
11446;DHT22;5779;64.178;15.432;2022-11-20T08:14:05;-8.30;99.90
11446;DHT22;5779;64.178;15.432;2022-11-20T08:16:58;-8.30;99.90
11446;DHT22;5779;64.178;15.432;2022-11-20T08:19:45;-8.20;99.90
11446;DHT22;5779;64.178;15.432;2022-11-20T08:22:32;-8.30;99.90
11446;DHT22;5779;64.178;15.432;2022-11-20T08:25:19;-8.30;99.90
11446;DHT22;5779;64.178;15.432;2022-11-20T08:28:07;-8.20;99.90
11446;DHT22;5779;64.178;15.432;2022-11-20T08:30:58;-8.10;99.90
11446;DHT22;5779;64.178;15.432;2022-11-20T08:33:46;-8.30;99.90
11446;DHT22;5779;64.178;15.432;2022-11-20T08:36:33;-8.40;99.90
11446;DHT22;5779;64.178;15.432;2022-11-20T08:39:20;-8.40;99.90
11446;DHT22;5779;64.178;15.432;2022-11-20T08:42:07;-8.40;99.90
11446;DHT22;5779;64.178;15.432;2022-11-20T08:44:54;-8.40;99.90
11446;DHT22;5779;64.178;15.432;2022-11-20T08:47:41;-8.40;99.90
11446;DHT22;5779;64.178;15.432;2022-11-20T08:50:30;-8.30;99.90
11446;DHT22;5779;64.178;15.432;2022-11-20T08:53:17;-8.40;99.90
11446;DHT22;5779;64.178;15.432;2022-11-20T08:56:04;-8.60;99.90
11446;DHT22;5779;64.178;15.432;2022-11-20T08:58:52;-8.70;99.90
11446;DHT22;5779;64.178;15.432;2022-11-20T09:01:38;-8.50;99.90
11446;DHT22;5779;64.178;15.432;2022-11-20T09:04:25;-8.50;99.90
11446;DHT22;5779;64.178;15.432;2022-11-20T09:07:14;-8.60;99.90
11446;DHT22;5779;64.178;15.432;2022-11-20T09:10:00;-8.40;99.90
11446;DHT22;5779;64.178;15.432;2022-11-20T09:12:49;-8.30;99.90
11446;DHT22;5779;64.178;15.432;2022-11-20T09:15:36;-8.20;99.90
11446;DHT22;5779;64.178;15.432;2022-11-20T09:18:24;-8.20;99.90
11446;DHT22;5779;64.178;15.432;2022-11-20T09:21:12;-8.20;99.90
11446;DHT22;5779;64.178;15.432;2022-11-20T09:24:01;-8.30;99.90
11446;DHT22;5779;64.178;15.432;2022-11-20T09:26:48;-8.40;99.90
11446;DHT22;5779;64.178;15.432;2022-11-20T09:29:35;-8.40;99.90
11446;DHT22;5779;64.178;15.432;2022-11-20T09:32:21;-8.30;99.90
11446;DHT22;5779;64.178;15.432;2022-11-20T09:35:09;-8.20;99.90
11446;DHT22;5779;64.178;15.432;2022-11-20T09:37:56;-8.10;99.90
11446;DHT22;5779;64.178;15.432;2022-11-20T09:40:51;-8.20;99.90
11446;DHT22;5779;64.178;15.432;2022-11-20T09:43:49;-8.20;99.90
11446;DHT22;5779;64.178;15.432;2022-11-20T09:46:48;-8.20;99.90
11446;DHT22;5779;64.178;15.432;2022-11-20T09:49:53;-8.30;99.90
11446;DHT22;5779;64.178;15.432;2022-11-20T09:52:49;-8.30;99.90
11446;DHT22;5779;64.178;15.432;2022-11-20T09:55:41;-8.30;99.90
11446;DHT22;5779;64.178;15.432;2022-11-20T09:58:34;-8.40;99.90
11446;DHT22;5779;64.178;15.432;2022-11-20T10:01:26;-8.30;99.90
11446;DHT22;5779;64.178;15.432;2022-11-20T10:04:17;-8.20;99.90
11446;DHT22;5779;64.178;15.432;2022-11-20T10:07:07;-8.20;99.90
11446;DHT22;5779;64.178;15.432;2022-11-20T10:09:59;-8.10;99.90
11446;DHT22;5779;64.178;15.432;2022-11-20T10:12:57;-8.10;99.90
11446;DHT22;5779;64.178;15.432;2022-11-20T10:15:56;-8.20;99.90
11446;DHT22;5779;64.178;15.432;2022-11-20T10:19:01;-8.20;99.90
11446;DHT22;5779;64.178;15.432;2022-11-20T10:21:58;-8.10;99.90
11446;DHT22;5779;64.178;15.432;2022-11-20T10:24:56;-8.00;99.90
11446;DHT22;5779;64.178;15.432;2022-11-20T10:28:02;-7.90;99.90
11446;DHT22;5779;64.178;15.432;2022-11-20T10:31:00;-8.10;99.90
11446;DHT22;5779;64.178;15.432;2022-11-20T10:33:47;-8.10;99.90
11446;DHT22;5779;64.178;15.432;2022-11-20T10:36:42;-8.10;99.90
11446;DHT22;5779;64.178;15.432;2022-11-20T10:39:35;-7.90;99.90
11446;DHT22;5779;64.178;15.432;2022-11-20T10:42:29;-7.90;99.90
11446;DHT22;5779;64.178;15.432;2022-11-20T10:45:33;-7.90;99.90
11446;DHT22;5779;64.178;15.432;2022-11-20T10:48:24;-8.10;99.90
11446;DHT22;5779;64.178;15.432;2022-11-20T10:51:21;-8.00;99.90
11446;DHT22;5779;64.178;15.432;2022-11-20T10:54:19;-7.90;99.90
11446;DHT22;5779;64.178;15.432;2022-11-20T10:57:20;-8.00;99.90
11446;DHT22;5779;64.178;15.432;2022-11-20T11:00:12;-8.00;99.90
11446;DHT22;5779;64.178;15.432;2022-11-20T11:02:59;-8.00;99.90
11446;DHT22;5779;64.178;15.432;2022-11-20T11:05:51;-7.90;99.90
11446;DHT22;5779;64.178;15.432;2022-11-20T11:08:41;-7.70;99.90
11446;DHT22;5779;64.178;15.432;2022-11-20T11:11:32;-7.60;99.90
11446;DHT22;5779;64.178;15.432;2022-11-20T11:14:19;-7.80;99.90
11446;DHT22;5779;64.178;15.432;2022-11-20T11:17:20;-7.80;99.90
11446;DHT22;5779;64.178;15.432;2022-11-20T11:20:16;-7.80;99.90
11446;DHT22;5779;64.178;15.432;2022-11-20T11:23:04;-7.70;99.90
11446;DHT22;5779;64.178;15.432;2022-11-20T11:25:57;-7.80;99.90
11446;DHT22;5779;64.178;15.432;2022-11-20T11:28:54;-7.90;99.90
11446;DHT22;5779;64.178;15.432;2022-11-20T11:31:41;-7.80;99.90
11446;DHT22;5779;64.178;15.432;2022-11-20T11:34:28;-7.70;99.90
11446;DHT22;5779;64.178;15.432;2022-11-20T11:37:17;-7.60;99.90
11446;DHT22;5779;64.178;15.432;2022-11-20T11:40:11;-7.80;99.90
11446;DHT22;5779;64.178;15.432;2022-11-20T11:43:01;-7.80;99.90
11446;DHT22;5779;64.178;15.432;2022-11-20T11:45:52;-7.80;99.90
11446;DHT22;5779;64.178;15.432;2022-11-20T11:48:39;-7.70;99.90
11446;DHT22;5779;64.178;15.432;2022-11-20T11:51:30;-7.80;99.90
11446;DHT22;5779;64.178;15.432;2022-11-20T11:54:22;-7.80;99.90
11446;DHT22;5779;64.178;15.432;2022-11-20T11:57:16;-8.00;99.90
11446;DHT22;5779;64.178;15.432;2022-11-20T12:00:06;-8.10;99.90
11446;DHT22;5779;64.178;15.432;2022-11-20T12:03:00;-8.10;99.90
11446;DHT22;5779;64.178;15.432;2022-11-20T12:05:55;-8.20;99.90
11446;DHT22;5779;64.178;15.432;2022-11-20T12:08:47;-8.10;99.90
11446;DHT22;5779;64.178;15.432;2022-11-20T12:11:42;-8.00;99.90
11446;DHT22;5779;64.178;15.432;2022-11-20T12:14:34;-7.90;99.90
11446;DHT22;5779;64.178;15.432;2022-11-20T12:17:22;-7.80;99.90
11446;DHT22;5779;64.178;15.432;2022-11-20T12:20:13;-7.60;99.90
11446;DHT22;5779;64.178;15.432;2022-11-20T12:23:05;-7.60;99.90
11446;DHT22;5779;64.178;15.432;2022-11-20T12:25:57;-7.50;99.90
11446;DHT22;5779;64.178;15.432;2022-11-20T12:28:59;-7.50;99.90
11446;DHT22;5779;64.178;15.432;2022-11-20T12:32:10;-7.60;99.90
11446;DHT22;5779;64.178;15.432;2022-11-20T12:35:05;-7.60;99.90
11446;DHT22;5779;64.178;15.432;2022-11-20T12:38:07;-7.70;99.90
11446;DHT22;5779;64.178;15.432;2022-11-20T12:41:03;-7.70;99.90
11446;DHT22;5779;64.178;15.432;2022-11-20T12:44:00;-7.50;99.90
11446;DHT22;5779;64.178;15.432;2022-11-20T12:47:17;-7.60;99.90
11446;DHT22;5779;64.178;15.432;2022-11-20T12:50:16;-7.60;99.90
11446;DHT22;5779;64.178;15.432;2022-11-20T12:53:11;-7.50;99.90
11446;DHT22;5779;64.178;15.432;2022-11-20T12:56:13;-7.60;99.90
11446;DHT22;5779;64.178;15.432;2022-11-20T12:59:20;-7.60;99.90
11446;DHT22;5779;64.178;15.432;2022-11-20T13:02:22;-7.50;99.90
11446;DHT22;5779;64.178;15.432;2022-11-20T13:05:24;-7.40;99.90
11446;DHT22;5779;64.178;15.432;2022-11-20T13:08:20;-7.40;99.90
11446;DHT22;5779;64.178;15.432;2022-11-20T13:11:14;-7.30;99.90
11446;DHT22;5779;64.178;15.432;2022-11-20T13:14:14;-7.40;99.90
11446;DHT22;5779;64.178;15.432;2022-11-20T13:17:09;-7.40;99.90
11446;DHT22;5779;64.178;15.432;2022-11-20T13:19:59;-7.40;99.90
11446;DHT22;5779;64.178;15.432;2022-11-20T13:22:48;-7.40;99.90
11446;DHT22;5779;64.178;15.432;2022-11-20T13:25:37;-7.30;99.90
11446;DHT22;5779;64.178;15.432;2022-11-20T13:28:28;-7.40;99.90
11446;DHT22;5779;64.178;15.432;2022-11-20T13:31:40;-7.50;99.90
11446;DHT22;5779;64.178;15.432;2022-11-20T13:34:28;-7.50;99.90
11446;DHT22;5779;64.178;15.432;2022-11-20T13:37:28;-7.50;99.90
11446;DHT22;5779;64.178;15.432;2022-11-20T13:40:22;-7.50;99.90
11446;DHT22;5779;64.178;15.432;2022-11-20T13:43:17;-7.40;99.90
11446;DHT22;5779;64.178;15.432;2022-11-20T13:46:06;-7.30;99.90
11446;DHT22;5779;64.178;15.432;2022-11-20T13:48:54;-7.20;99.90
11446;DHT22;5779;64.178;15.432;2022-11-20T13:51:43;-7.20;99.90
11446;DHT22;5779;64.178;15.432;2022-11-20T13:54:51;-7.20;99.90
11446;DHT22;5779;64.178;15.432;2022-11-20T13:57:51;-7.20;99.90
11446;DHT22;5779;64.178;15.432;2022-11-20T14:00:44;-7.20;99.90
11446;DHT22;5779;64.178;15.432;2022-11-20T14:03:33;-7.60;99.90
11446;DHT22;5779;64.178;15.432;2022-11-20T14:06:25;-7.70;99.90
11446;DHT22;5779;64.178;15.432;2022-11-20T14:09:25;-7.90;99.90
11446;DHT22;5779;64.178;15.432;2022-11-20T14:12:17;-7.70;99.90
11446;DHT22;5779;64.178;15.432;2022-11-20T14:15:05;-7.60;99.90
11446;DHT22;5779;64.178;15.432;2022-11-20T14:17:52;-7.60;99.90
11446;DHT22;5779;64.178;15.432;2022-11-20T14:20:39;-7.90;99.90
11446;DHT22;5779;64.178;15.432;2022-11-20T14:23:28;-8.00;99.90
11446;DHT22;5779;64.178;15.432;2022-11-20T14:26:17;-8.00;99.90
11446;DHT22;5779;64.178;15.432;2022-11-20T14:29:11;-8.00;99.90
11446;DHT22;5779;64.178;15.432;2022-11-20T14:31:59;-8.00;99.90
11446;DHT22;5779;64.178;15.432;2022-11-20T14:34:48;-8.10;99.90
11446;DHT22;5779;64.178;15.432;2022-11-20T14:37:38;-8.20;99.90
11446;DHT22;5779;64.178;15.432;2022-11-20T14:40:28;-8.10;99.90
11446;DHT22;5779;64.178;15.432;2022-11-20T14:43:21;-8.10;99.90
11446;DHT22;5779;64.178;15.432;2022-11-20T14:46:10;-8.00;99.90
11446;DHT22;5779;64.178;15.432;2022-11-20T14:49:00;-8.10;99.90
11446;DHT22;5779;64.178;15.432;2022-11-20T14:51:47;-7.90;99.90
11446;DHT22;5779;64.178;15.432;2022-11-20T14:54:46;-7.90;99.90
11446;DHT22;5779;64.178;15.432;2022-11-20T14:57:34;-7.80;99.90
11446;DHT22;5779;64.178;15.432;2022-11-20T15:00:23;-7.80;99.90
11446;DHT22;5779;64.178;15.432;2022-11-20T15:03:16;-7.80;99.90
11446;DHT22;5779;64.178;15.432;2022-11-20T15:06:03;-7.70;99.90
11446;DHT22;5779;64.178;15.432;2022-11-20T15:08:51;-7.60;99.90
11446;DHT22;5779;64.178;15.432;2022-11-20T15:11:38;-7.60;99.90
11446;DHT22;5779;64.178;15.432;2022-11-20T15:14:26;-7.50;99.90
11446;DHT22;5779;64.178;15.432;2022-11-20T15:17:13;-7.50;99.90
11446;DHT22;5779;64.178;15.432;2022-11-20T15:20:02;-7.50;99.90
11446;DHT22;5779;64.178;15.432;2022-11-20T15:22:50;-7.50;99.90
11446;DHT22;5779;64.178;15.432;2022-11-20T15:25:38;-7.50;99.90
11446;DHT22;5779;64.178;15.432;2022-11-20T15:28:29;-7.50;99.90
11446;DHT22;5779;64.178;15.432;2022-11-20T15:31:19;-7.50;99.90
11446;DHT22;5779;64.178;15.432;2022-11-20T15:34:09;-7.50;99.90
11446;DHT22;5779;64.178;15.432;2022-11-20T15:36:58;-7.40;99.90
11446;DHT22;5779;64.178;15.432;2022-11-20T15:39:44;-7.40;99.90
11446;DHT22;5779;64.178;15.432;2022-11-20T15:42:32;-7.40;99.90
11446;DHT22;5779;64.178;15.432;2022-11-20T15:45:19;-7.50;99.90
11446;DHT22;5779;64.178;15.432;2022-11-20T15:48:09;-7.60;99.90
11446;DHT22;5779;64.178;15.432;2022-11-20T15:50:59;-7.50;99.90
11446;DHT22;5779;64.178;15.432;2022-11-20T15:53:48;-7.60;99.90
11446;DHT22;5779;64.178;15.432;2022-11-20T15:56:34;-7.60;99.90
11446;DHT22;5779;64.178;15.432;2022-11-20T15:59:22;-7.60;99.90
11446;DHT22;5779;64.178;15.432;2022-11-20T16:02:10;-7.70;99.90
11446;DHT22;5779;64.178;15.432;2022-11-20T16:04:57;-7.80;99.90
11446;DHT22;5779;64.178;15.432;2022-11-20T16:07:44;-7.90;99.90
11446;DHT22;5779;64.178;15.432;2022-11-20T16:10:32;-8.00;99.90
11446;DHT22;5779;64.178;15.432;2022-11-20T16:13:19;-8.00;99.90
11446;DHT22;5779;64.178;15.432;2022-11-20T16:16:25;-7.90;99.90
11446;DHT22;5779;64.178;15.432;2022-11-20T16:19:15;-7.90;99.90
11446;DHT22;5779;64.178;15.432;2022-11-20T16:22:03;-7.80;99.90
11446;DHT22;5779;64.178;15.432;2022-11-20T16:24:51;-7.80;99.90
11446;DHT22;5779;64.178;15.432;2022-11-20T16:27:40;-7.80;99.90
11446;DHT22;5779;64.178;15.432;2022-11-20T16:30:27;-7.90;99.90
11446;DHT22;5779;64.178;15.432;2022-11-20T16:33:15;-7.90;99.90
11446;DHT22;5779;64.178;15.432;2022-11-20T16:36:07;-7.90;99.90
11446;DHT22;5779;64.178;15.432;2022-11-20T16:38:55;-7.90;99.90
11446;DHT22;5779;64.178;15.432;2022-11-20T16:41:42;-8.00;99.90
11446;DHT22;5779;64.178;15.432;2022-11-20T16:44:30;-8.00;99.90
11446;DHT22;5779;64.178;15.432;2022-11-20T16:47:18;-8.10;99.90
11446;DHT22;5779;64.178;15.432;2022-11-20T16:50:07;-8.10;99.90
11446;DHT22;5779;64.178;15.432;2022-11-20T16:52:55;-8.20;99.90
11446;DHT22;5779;64.178;15.432;2022-11-20T16:55:41;-8.30;99.90
11446;DHT22;5779;64.178;15.432;2022-11-20T16:58:30;-8.30;99.90
11446;DHT22;5779;64.178;15.432;2022-11-20T17:01:19;-8.40;99.90
11446;DHT22;5779;64.178;15.432;2022-11-20T17:04:06;-8.40;99.90
11446;DHT22;5779;64.178;15.432;2022-11-20T17:06:53;-8.40;99.90
11446;DHT22;5779;64.178;15.432;2022-11-20T17:09:40;-8.40;99.90
11446;DHT22;5779;64.178;15.432;2022-11-20T17:12:27;-8.50;99.90
11446;DHT22;5779;64.178;15.432;2022-11-20T17:15:14;-8.60;99.90
11446;DHT22;5779;64.178;15.432;2022-11-20T17:18:03;-8.80;99.90
11446;DHT22;5779;64.178;15.432;2022-11-20T17:20:51;-8.70;99.90
11446;DHT22;5779;64.178;15.432;2022-11-20T17:23:39;-8.60;99.90
11446;DHT22;5779;64.178;15.432;2022-11-20T17:26:27;-8.60;99.90
11446;DHT22;5779;64.178;15.432;2022-11-20T17:29:15;-8.80;99.90
11446;DHT22;5779;64.178;15.432;2022-11-20T17:32:03;-8.70;99.90
11446;DHT22;5779;64.178;15.432;2022-11-20T17:34:51;-8.80;99.90
11446;DHT22;5779;64.178;15.432;2022-11-20T17:37:38;-8.80;99.90
11446;DHT22;5779;64.178;15.432;2022-11-20T17:40:25;-8.90;99.90
11446;DHT22;5779;64.178;15.432;2022-11-20T17:43:12;-8.80;99.90
11446;DHT22;5779;64.178;15.432;2022-11-20T17:45:59;-8.80;99.90
11446;DHT22;5779;64.178;15.432;2022-11-20T17:48:46;-8.80;99.90
11446;DHT22;5779;64.178;15.432;2022-11-20T17:51:35;-8.80;99.90